sensor_id;sensor_type;location;lat;lon;timestamp;P1;P2;P0
56069;PMS5003;41944;52.078;-0.058;2023-05-31T00:01:54;4;4;
56069;PMS5003;41944;52.078;-0.058;2023-05-31T00:04:21;5;3;
56069;PMS5003;41944;52.078;-0.058;2023-05-31T00:06:48;2;1;
56069;PMS5003;41944;52.078;-0.058;2023-05-31T00:09:15;4;4;
56069;PMS5003;41944;52.078;-0.058;2023-05-31T00:11:42;3;3;
56069;PMS5003;41944;52.078;-0.058;2023-05-31T00:14:09;2;2;
56069;PMS5003;41944;52.078;-0.058;2023-05-31T00:16:36;2;2;
56069;PMS5003;41944;52.078;-0.058;2023-05-31T00:19:03;2;2;
56069;PMS5003;41944;52.078;-0.058;2023-05-31T00:21:30;3;2;
56069;PMS5003;41944;52.078;-0.058;2023-05-31T00:23:58;3;3;
56069;PMS5003;41944;52.078;-0.058;2023-05-31T00:26:24;3;2;
56069;PMS5003;41944;52.078;-0.058;2023-05-31T00:28:51;2;2;
56069;PMS5003;41944;52.078;-0.058;2023-05-31T00:31:18;1;1;
56069;PMS5003;41944;52.078;-0.058;2023-05-31T00:33:45;1;0;
56069;PMS5003;41944;52.078;-0.058;2023-05-31T00:36:12;0;0;
56069;PMS5003;41944;52.078;-0.058;2023-05-31T00:38:39;2;2;
56069;PMS5003;41944;52.078;-0.058;2023-05-31T00:41:08;1;1;
56069;PMS5003;41944;52.078;-0.058;2023-05-31T00:43:35;2;2;
56069;PMS5003;41944;52.078;-0.058;2023-05-31T00:46:02;0;0;
56069;PMS5003;41944;52.078;-0.058;2023-05-31T00:48:30;1;1;
56069;PMS5003;41944;52.078;-0.058;2023-05-31T00:50:58;2;2;
56069;PMS5003;41944;52.078;-0.058;2023-05-31T00:53:25;1;1;
56069;PMS5003;41944;52.078;-0.058;2023-05-31T00:55:53;1;1;
56069;PMS5003;41944;52.078;-0.058;2023-05-31T00:58:20;2;1;
56069;PMS5003;41944;52.078;-0.058;2023-05-31T01:00:50;1;1;
56069;PMS5003;41944;52.078;-0.058;2023-05-31T01:03:18;1;1;
56069;PMS5003;41944;52.078;-0.058;2023-05-31T01:05:45;1;1;
56069;PMS5003;41944;52.078;-0.058;2023-05-31T01:08:12;3;3;
56069;PMS5003;41944;52.078;-0.058;2023-05-31T01:10:40;2;2;
56069;PMS5003;41944;52.078;-0.058;2023-05-31T01:13:11;2;1;
56069;PMS5003;41944;52.078;-0.058;2023-05-31T01:15:51;3;1;
56069;PMS5003;41944;52.078;-0.058;2023-05-31T01:18:26;2;2;
56069;PMS5003;41944;52.078;-0.058;2023-05-31T01:20:58;1;0;
56069;PMS5003;41944;52.078;-0.058;2023-05-31T01:23:33;1;1;
56069;PMS5003;41944;52.078;-0.058;2023-05-31T01:26:18;2;1;
56069;PMS5003;41944;52.078;-0.058;2023-05-31T01:28:58;3;3;
56069;PMS5003;41944;52.078;-0.058;2023-05-31T01:31:27;3;1;
56069;PMS5003;41944;52.078;-0.058;2023-05-31T01:34:00;3;3;
56069;PMS5003;41944;52.078;-0.058;2023-05-31T01:36:27;4;1;
56069;PMS5003;41944;52.078;-0.058;2023-05-31T01:38:54;5;2;
56069;PMS5003;41944;52.078;-0.058;2023-05-31T01:41:21;3;2;
56069;PMS5003;41944;52.078;-0.058;2023-05-31T01:43:51;1;1;
56069;PMS5003;41944;52.078;-0.058;2023-05-31T01:46:18;1;1;
56069;PMS5003;41944;52.078;-0.058;2023-05-31T01:48:46;4;4;
56069;PMS5003;41944;52.078;-0.058;2023-05-31T01:51:15;2;2;
56069;PMS5003;41944;52.078;-0.058;2023-05-31T01:53:43;1;1;
56069;PMS5003;41944;52.078;-0.058;2023-05-31T01:56:09;3;2;
56069;PMS5003;41944;52.078;-0.058;2023-05-31T01:58:38;3;2;
56069;PMS5003;41944;52.078;-0.058;2023-05-31T02:01:07;2;2;
56069;PMS5003;41944;52.078;-0.058;2023-05-31T02:03:35;4;3;
56069;PMS5003;41944;52.078;-0.058;2023-05-31T02:06:03;6;2;
56069;PMS5003;41944;52.078;-0.058;2023-05-31T02:08:31;1;1;
56069;PMS5003;41944;52.078;-0.058;2023-05-31T02:10:59;3;2;
56069;PMS5003;41944;52.078;-0.058;2023-05-31T02:13:26;3;2;
56069;PMS5003;41944;52.078;-0.058;2023-05-31T02:15:54;2;2;
56069;PMS5003;41944;52.078;-0.058;2023-05-31T02:18:22;3;3;
56069;PMS5003;41944;52.078;-0.058;2023-05-31T02:20:50;3;2;
56069;PMS5003;41944;52.078;-0.058;2023-05-31T02:23:16;2;2;
56069;PMS5003;41944;52.078;-0.058;2023-05-31T02:25:44;5;4;
56069;PMS5003;41944;52.078;-0.058;2023-05-31T02:28:11;2;2;
56069;PMS5003;41944;52.078;-0.058;2023-05-31T02:30:38;0;0;
56069;PMS5003;41944;52.078;-0.058;2023-05-31T02:33:06;4;2;
56069;PMS5003;41944;52.078;-0.058;2023-05-31T02:35:32;1;1;
56069;PMS5003;41944;52.078;-0.058;2023-05-31T02:37:59;3;3;
56069;PMS5003;41944;52.078;-0.058;2023-05-31T02:40:27;4;4;
56069;PMS5003;41944;52.078;-0.058;2023-05-31T02:42:54;5;3;
56069;PMS5003;41944;52.078;-0.058;2023-05-31T02:45:21;3;3;
56069;PMS5003;41944;52.078;-0.058;2023-05-31T02:47:48;2;2;
56069;PMS5003;41944;52.078;-0.058;2023-05-31T02:50:14;1;1;
56069;PMS5003;41944;52.078;-0.058;2023-05-31T02:52:41;1;1;
56069;PMS5003;41944;52.078;-0.058;2023-05-31T02:55:08;2;2;
56069;PMS5003;41944;52.078;-0.058;2023-05-31T02:57:35;2;2;
56069;PMS5003;41944;52.078;-0.058;2023-05-31T03:00:03;2;2;
56069;PMS5003;41944;52.078;-0.058;2023-05-31T03:02:31;2;2;
56069;PMS5003;41944;52.078;-0.058;2023-05-31T03:04:58;2;2;
56069;PMS5003;41944;52.078;-0.058;2023-05-31T03:07:25;3;3;
56069;PMS5003;41944;52.078;-0.058;2023-05-31T03:09:52;3;2;
56069;PMS5003;41944;52.078;-0.058;2023-05-31T03:12:19;10;6;
56069;PMS5003;41944;52.078;-0.058;2023-05-31T03:14:46;3;3;
56069;PMS5003;41944;52.078;-0.058;2023-05-31T03:17:13;4;4;
56069;PMS5003;41944;52.078;-0.058;2023-05-31T03:19:40;4;4;
56069;PMS5003;41944;52.078;-0.058;2023-05-31T03:22:07;6;6;
56069;PMS5003;41944;52.078;-0.058;2023-05-31T03:24:34;2;2;
56069;PMS5003;41944;52.078;-0.058;2023-05-31T03:27:00;5;5;
56069;PMS5003;41944;52.078;-0.058;2023-05-31T03:29:27;4;4;
56069;PMS5003;41944;52.078;-0.058;2023-05-31T03:31:54;4;4;
56069;PMS5003;41944;52.078;-0.058;2023-05-31T03:34:21;4;4;
56069;PMS5003;41944;52.078;-0.058;2023-05-31T03:36:48;3;3;
56069;PMS5003;41944;52.078;-0.058;2023-05-31T03:39:15;3;3;
56069;PMS5003;41944;52.078;-0.058;2023-05-31T03:41:42;3;3;
56069;PMS5003;41944;52.078;-0.058;2023-05-31T03:44:09;2;1;
56069;PMS5003;41944;52.078;-0.058;2023-05-31T03:46:36;1;1;
56069;PMS5003;41944;52.078;-0.058;2023-05-31T03:49:02;3;3;
56069;PMS5003;41944;52.078;-0.058;2023-05-31T03:51:30;3;3;
56069;PMS5003;41944;52.078;-0.058;2023-05-31T03:53:57;3;3;
56069;PMS5003;41944;52.078;-0.058;2023-05-31T03:56:24;6;4;
56069;PMS5003;41944;52.078;-0.058;2023-05-31T03:58:51;3;3;
56069;PMS5003;41944;52.078;-0.058;2023-05-31T04:01:18;5;2;
56069;PMS5003;41944;52.078;-0.058;2023-05-31T04:03:44;5;4;
56069;PMS5003;41944;52.078;-0.058;2023-05-31T04:06:11;4;4;
56069;PMS5003;41944;52.078;-0.058;2023-05-31T04:08:38;3;3;
56069;PMS5003;41944;52.078;-0.058;2023-05-31T04:11:05;4;4;
56069;PMS5003;41944;52.078;-0.058;2023-05-31T04:13:32;6;5;
56069;PMS5003;41944;52.078;-0.058;2023-05-31T04:15:59;2;2;
56069;PMS5003;41944;52.078;-0.058;2023-05-31T04:18:26;5;2;
56069;PMS5003;41944;52.078;-0.058;2023-05-31T04:20:53;2;2;
56069;PMS5003;41944;52.078;-0.058;2023-05-31T04:23:20;3;3;
56069;PMS5003;41944;52.078;-0.058;2023-05-31T04:25:47;3;3;
56069;PMS5003;41944;52.078;-0.058;2023-05-31T04:28:14;3;3;
56069;PMS5003;41944;52.078;-0.058;2023-05-31T04:30:40;5;5;
56069;PMS5003;41944;52.078;-0.058;2023-05-31T04:33:07;4;4;
56069;PMS5003;41944;52.078;-0.058;2023-05-31T04:35:34;6;4;
56069;PMS5003;41944;52.078;-0.058;2023-05-31T04:38:01;6;6;
56069;PMS5003;41944;52.078;-0.058;2023-05-31T04:40:28;9;7;
56069;PMS5003;41944;52.078;-0.058;2023-05-31T04:42:56;14;14;
56069;PMS5003;41944;52.078;-0.058;2023-05-31T04:45:23;6;6;
56069;PMS5003;41944;52.078;-0.058;2023-05-31T04:47:50;6;6;
56069;PMS5003;41944;52.078;-0.058;2023-05-31T04:50:17;5;5;
56069;PMS5003;41944;52.078;-0.058;2023-05-31T04:52:44;6;6;
56069;PMS5003;41944;52.078;-0.058;2023-05-31T04:55:11;6;5;
56069;PMS5003;41944;52.078;-0.058;2023-05-31T04:57:38;7;7;
56069;PMS5003;41944;52.078;-0.058;2023-05-31T05:00:05;5;5;
56069;PMS5003;41944;52.078;-0.058;2023-05-31T05:02:33;5;5;
56069;PMS5003;41944;52.078;-0.058;2023-05-31T05:05:00;9;6;
56069;PMS5003;41944;52.078;-0.058;2023-05-31T05:07:27;8;8;
56069;PMS5003;41944;52.078;-0.058;2023-05-31T05:09:54;7;5;
56069;PMS5003;41944;52.078;-0.058;2023-05-31T05:12:21;4;4;
56069;PMS5003;41944;52.078;-0.058;2023-05-31T05:14:48;5;5;
56069;PMS5003;41944;52.078;-0.058;2023-05-31T05:17:15;6;5;
56069;PMS5003;41944;52.078;-0.058;2023-05-31T05:19:42;5;5;
56069;PMS5003;41944;52.078;-0.058;2023-05-31T05:22:09;4;4;
56069;PMS5003;41944;52.078;-0.058;2023-05-31T05:24:35;8;6;
56069;PMS5003;41944;52.078;-0.058;2023-05-31T05:27:02;3;3;
56069;PMS5003;41944;52.078;-0.058;2023-05-31T05:29:29;4;4;
56069;PMS5003;41944;52.078;-0.058;2023-05-31T05:31:58;6;6;
56069;PMS5003;41944;52.078;-0.058;2023-05-31T05:34:25;6;4;
56069;PMS5003;41944;52.078;-0.058;2023-05-31T05:36:52;4;4;
56069;PMS5003;41944;52.078;-0.058;2023-05-31T05:39:18;6;5;
56069;PMS5003;41944;52.078;-0.058;2023-05-31T05:41:45;5;4;
56069;PMS5003;41944;52.078;-0.058;2023-05-31T05:44:12;3;3;
56069;PMS5003;41944;52.078;-0.058;2023-05-31T05:46:39;5;5;
56069;PMS5003;41944;52.078;-0.058;2023-05-31T05:49:06;6;6;
56069;PMS5003;41944;52.078;-0.058;2023-05-31T05:51:33;4;4;
56069;PMS5003;41944;52.078;-0.058;2023-05-31T05:54:00;5;5;
56069;PMS5003;41944;52.078;-0.058;2023-05-31T05:56:27;7;7;
56069;PMS5003;41944;52.078;-0.058;2023-05-31T05:58:53;5;5;
56069;PMS5003;41944;52.078;-0.058;2023-05-31T06:01:20;6;5;
56069;PMS5003;41944;52.078;-0.058;2023-05-31T06:03:47;7;5;
56069;PMS5003;41944;52.078;-0.058;2023-05-31T06:06:16;8;6;
56069;PMS5003;41944;52.078;-0.058;2023-05-31T06:08:43;7;6;
56069;PMS5003;41944;52.078;-0.058;2023-05-31T06:11:10;5;5;
56069;PMS5003;41944;52.078;-0.058;2023-05-31T06:13:37;9;8;
56069;PMS5003;41944;52.078;-0.058;2023-05-31T06:16:05;5;5;
56069;PMS5003;41944;52.078;-0.058;2023-05-31T06:18:32;6;6;
56069;PMS5003;41944;52.078;-0.058;2023-05-31T06:20:59;6;6;
56069;PMS5003;41944;52.078;-0.058;2023-05-31T06:23:26;7;7;
56069;PMS5003;41944;52.078;-0.058;2023-05-31T06:25:54;7;7;
56069;PMS5003;41944;52.078;-0.058;2023-05-31T06:28:21;6;6;
56069;PMS5003;41944;52.078;-0.058;2023-05-31T06:30:48;5;5;
56069;PMS5003;41944;52.078;-0.058;2023-05-31T06:33:15;7;5;
56069;PMS5003;41944;52.078;-0.058;2023-05-31T06:35:42;5;5;
56069;PMS5003;41944;52.078;-0.058;2023-05-31T06:38:09;7;7;
56069;PMS5003;41944;52.078;-0.058;2023-05-31T06:40:36;7;6;
56069;PMS5003;41944;52.078;-0.058;2023-05-31T06:43:03;7;4;
56069;PMS5003;41944;52.078;-0.058;2023-05-31T06:45:30;6;5;
56069;PMS5003;41944;52.078;-0.058;2023-05-31T06:47:58;12;12;
56069;PMS5003;41944;52.078;-0.058;2023-05-31T06:50:25;8;8;
56069;PMS5003;41944;52.078;-0.058;2023-05-31T06:52:52;7;7;
56069;PMS5003;41944;52.078;-0.058;2023-05-31T06:55:19;6;6;
56069;PMS5003;41944;52.078;-0.058;2023-05-31T06:57:45;9;6;
56069;PMS5003;41944;52.078;-0.058;2023-05-31T07:00:13;7;7;
56069;PMS5003;41944;52.078;-0.058;2023-05-31T07:02:40;8;7;
56069;PMS5003;41944;52.078;-0.058;2023-05-31T07:05:07;6;6;
56069;PMS5003;41944;52.078;-0.058;2023-05-31T07:07:35;13;13;
56069;PMS5003;41944;52.078;-0.058;2023-05-31T07:10:02;8;8;
56069;PMS5003;41944;52.078;-0.058;2023-05-31T07:12:28;9;8;
56069;PMS5003;41944;52.078;-0.058;2023-05-31T07:14:55;6;6;
56069;PMS5003;41944;52.078;-0.058;2023-05-31T07:17:22;7;7;
56069;PMS5003;41944;52.078;-0.058;2023-05-31T07:19:49;8;8;
56069;PMS5003;41944;52.078;-0.058;2023-05-31T07:22:17;12;11;
56069;PMS5003;41944;52.078;-0.058;2023-05-31T07:24:44;12;8;
56069;PMS5003;41944;52.078;-0.058;2023-05-31T07:27:11;13;8;
56069;PMS5003;41944;52.078;-0.058;2023-05-31T07:29:38;10;8;
56069;PMS5003;41944;52.078;-0.058;2023-05-31T07:32:05;12;9;
56069;PMS5003;41944;52.078;-0.058;2023-05-31T07:34:33;10;9;
56069;PMS5003;41944;52.078;-0.058;2023-05-31T07:36:59;11;9;
56069;PMS5003;41944;52.078;-0.058;2023-05-31T07:39:26;11;7;
56069;PMS5003;41944;52.078;-0.058;2023-05-31T07:41:55;13;9;
56069;PMS5003;41944;52.078;-0.058;2023-05-31T07:44:22;9;9;
56069;PMS5003;41944;52.078;-0.058;2023-05-31T07:46:49;8;7;
56069;PMS5003;41944;52.078;-0.058;2023-05-31T07:49:16;10;9;
56069;PMS5003;41944;52.078;-0.058;2023-05-31T07:51:43;8;7;
56069;PMS5003;41944;52.078;-0.058;2023-05-31T07:54:10;12;12;
56069;PMS5003;41944;52.078;-0.058;2023-05-31T07:56:37;10;9;
56069;PMS5003;41944;52.078;-0.058;2023-05-31T07:59:03;9;9;
56069;PMS5003;41944;52.078;-0.058;2023-05-31T08:01:31;10;10;
56069;PMS5003;41944;52.078;-0.058;2023-05-31T08:04:04;15;9;
56069;PMS5003;41944;52.078;-0.058;2023-05-31T08:06:32;10;9;
56069;PMS5003;41944;52.078;-0.058;2023-05-31T08:08:59;12;9;
56069;PMS5003;41944;52.078;-0.058;2023-05-31T08:11:27;10;10;
56069;PMS5003;41944;52.078;-0.058;2023-05-31T08:13:54;17;8;
56069;PMS5003;41944;52.078;-0.058;2023-05-31T08:16:22;9;8;
56069;PMS5003;41944;52.078;-0.058;2023-05-31T08:18:48;8;7;
56069;PMS5003;41944;52.078;-0.058;2023-05-31T08:21:15;14;10;
56069;PMS5003;41944;52.078;-0.058;2023-05-31T08:23:42;9;7;
56069;PMS5003;41944;52.078;-0.058;2023-05-31T08:26:09;12;9;
56069;PMS5003;41944;52.078;-0.058;2023-05-31T08:28:36;10;9;
56069;PMS5003;41944;52.078;-0.058;2023-05-31T08:31:03;14;7;
56069;PMS5003;41944;52.078;-0.058;2023-05-31T08:33:30;8;8;
56069;PMS5003;41944;52.078;-0.058;2023-05-31T08:35:58;8;8;
56069;PMS5003;41944;52.078;-0.058;2023-05-31T08:38:26;11;9;
56069;PMS5003;41944;52.078;-0.058;2023-05-31T08:40:53;11;8;
56069;PMS5003;41944;52.078;-0.058;2023-05-31T08:43:23;11;10;
56069;PMS5003;41944;52.078;-0.058;2023-05-31T08:45:54;10;10;
56069;PMS5003;41944;52.078;-0.058;2023-05-31T08:48:23;12;9;
56069;PMS5003;41944;52.078;-0.058;2023-05-31T08:50:55;9;9;
56069;PMS5003;41944;52.078;-0.058;2023-05-31T08:53:24;14;10;
56069;PMS5003;41944;52.078;-0.058;2023-05-31T08:55:51;13;11;
56069;PMS5003;41944;52.078;-0.058;2023-05-31T08:58:20;9;9;
56069;PMS5003;41944;52.078;-0.058;2023-05-31T09:00:48;8;8;
56069;PMS5003;41944;52.078;-0.058;2023-05-31T09:03:15;16;11;
56069;PMS5003;41944;52.078;-0.058;2023-05-31T09:05:42;9;7;
56069;PMS5003;41944;52.078;-0.058;2023-05-31T09:08:09;11;9;
56069;PMS5003;41944;52.078;-0.058;2023-05-31T09:10:36;9;9;
56069;PMS5003;41944;52.078;-0.058;2023-05-31T09:13:02;9;8;
56069;PMS5003;41944;52.078;-0.058;2023-05-31T09:15:30;11;10;
56069;PMS5003;41944;52.078;-0.058;2023-05-31T09:18:07;17;12;
56069;PMS5003;41944;52.078;-0.058;2023-05-31T09:20:39;10;10;
56069;PMS5003;41944;52.078;-0.058;2023-05-31T09:23:07;15;12;
56069;PMS5003;41944;52.078;-0.058;2023-05-31T09:25:42;11;9;
56069;PMS5003;41944;52.078;-0.058;2023-05-31T09:28:10;12;10;
56069;PMS5003;41944;52.078;-0.058;2023-05-31T09:30:38;11;9;
56069;PMS5003;41944;52.078;-0.058;2023-05-31T09:33:05;13;11;
56069;PMS5003;41944;52.078;-0.058;2023-05-31T09:35:33;16;13;
56069;PMS5003;41944;52.078;-0.058;2023-05-31T09:38:03;12;11;
56069;PMS5003;41944;52.078;-0.058;2023-05-31T09:40:31;11;10;
56069;PMS5003;41944;52.078;-0.058;2023-05-31T09:42:59;9;8;
56069;PMS5003;41944;52.078;-0.058;2023-05-31T09:45:28;9;9;
56069;PMS5003;41944;52.078;-0.058;2023-05-31T09:47:55;8;8;
56069;PMS5003;41944;52.078;-0.058;2023-05-31T09:50:22;9;9;
56069;PMS5003;41944;52.078;-0.058;2023-05-31T09:52:54;10;8;
56069;PMS5003;41944;52.078;-0.058;2023-05-31T09:55:23;13;10;
56069;PMS5003;41944;52.078;-0.058;2023-05-31T09:57:51;9;8;
56069;PMS5003;41944;52.078;-0.058;2023-05-31T10:00:18;10;7;
56069;PMS5003;41944;52.078;-0.058;2023-05-31T10:02:45;12;10;
56069;PMS5003;41944;52.078;-0.058;2023-05-31T10:05:14;13;10;
56069;PMS5003;41944;52.078;-0.058;2023-05-31T10:07:45;10;7;
56069;PMS5003;41944;52.078;-0.058;2023-05-31T10:10:14;14;11;
56069;PMS5003;41944;52.078;-0.058;2023-05-31T10:12:46;11;10;
56069;PMS5003;41944;52.078;-0.058;2023-05-31T10:15:16;10;9;
56069;PMS5003;41944;52.078;-0.058;2023-05-31T10:17:48;12;11;
56069;PMS5003;41944;52.078;-0.058;2023-05-31T10:20:21;15;12;
56069;PMS5003;41944;52.078;-0.058;2023-05-31T10:22:51;10;8;
56069;PMS5003;41944;52.078;-0.058;2023-05-31T10:25:23;11;9;
56069;PMS5003;41944;52.078;-0.058;2023-05-31T10:27:55;9;8;
56069;PMS5003;41944;52.078;-0.058;2023-05-31T10:30:27;10;7;
56069;PMS5003;41944;52.078;-0.058;2023-05-31T10:32:59;12;8;
56069;PMS5003;41944;52.078;-0.058;2023-05-31T10:35:32;9;9;
56069;PMS5003;41944;52.078;-0.058;2023-05-31T10:37:59;9;7;
56069;PMS5003;41944;52.078;-0.058;2023-05-31T10:40:30;10;9;
56069;PMS5003;41944;52.078;-0.058;2023-05-31T10:43:05;10;10;
56069;PMS5003;41944;52.078;-0.058;2023-05-31T10:45:38;11;10;
56069;PMS5003;41944;52.078;-0.058;2023-05-31T10:48:10;9;9;
56069;PMS5003;41944;52.078;-0.058;2023-05-31T10:50:51;12;10;
56069;PMS5003;41944;52.078;-0.058;2023-05-31T10:53:19;8;8;
56069;PMS5003;41944;52.078;-0.058;2023-05-31T10:55:46;16;12;
56069;PMS5003;41944;52.078;-0.058;2023-05-31T10:58:31;10;10;
56069;PMS5003;41944;52.078;-0.058;2023-05-31T11:01:02;10;10;
56069;PMS5003;41944;52.078;-0.058;2023-05-31T11:03:32;11;10;
56069;PMS5003;41944;52.078;-0.058;2023-05-31T11:06:01;12;10;
56069;PMS5003;41944;52.078;-0.058;2023-05-31T11:08:29;10;9;
56069;PMS5003;41944;52.078;-0.058;2023-05-31T11:12:02;9;7;
56069;PMS5003;41944;52.078;-0.058;2023-05-31T11:14:31;6;6;
56069;PMS5003;41944;52.078;-0.058;2023-05-31T11:17:15;9;9;
56069;PMS5003;41944;52.078;-0.058;2023-05-31T11:19:42;9;9;
56069;PMS5003;41944;52.078;-0.058;2023-05-31T11:22:18;9;8;
56069;PMS5003;41944;52.078;-0.058;2023-05-31T11:24:49;13;10;
56069;PMS5003;41944;52.078;-0.058;2023-05-31T11:27:18;9;9;
56069;PMS5003;41944;52.078;-0.058;2023-05-31T11:30:02;10;10;
56069;PMS5003;41944;52.078;-0.058;2023-05-31T11:33:13;15;10;
56069;PMS5003;41944;52.078;-0.058;2023-05-31T11:35:41;10;7;
56069;PMS5003;41944;52.078;-0.058;2023-05-31T11:38:08;9;8;
56069;PMS5003;41944;52.078;-0.058;2023-05-31T11:40:35;10;10;
56069;PMS5003;41944;52.078;-0.058;2023-05-31T11:43:02;7;6;
56069;PMS5003;41944;52.078;-0.058;2023-05-31T11:45:31;11;10;
56069;PMS5003;41944;52.078;-0.058;2023-05-31T11:48:00;16;11;
56069;PMS5003;41944;52.078;-0.058;2023-05-31T11:50:38;12;9;
56069;PMS5003;41944;52.078;-0.058;2023-05-31T11:53:06;9;8;
56069;PMS5003;41944;52.078;-0.058;2023-05-31T11:55:32;12;9;
56069;PMS5003;41944;52.078;-0.058;2023-05-31T11:58:00;10;9;
56069;PMS5003;41944;52.078;-0.058;2023-05-31T12:00:30;13;10;
56069;PMS5003;41944;52.078;-0.058;2023-05-31T12:02:58;11;10;
56069;PMS5003;41944;52.078;-0.058;2023-05-31T12:05:25;14;8;
56069;PMS5003;41944;52.078;-0.058;2023-05-31T12:07:53;13;10;
56069;PMS5003;41944;52.078;-0.058;2023-05-31T12:10:21;11;9;
56069;PMS5003;41944;52.078;-0.058;2023-05-31T12:12:52;9;8;
56069;PMS5003;41944;52.078;-0.058;2023-05-31T12:15:19;8;8;
56069;PMS5003;41944;52.078;-0.058;2023-05-31T12:17:46;11;8;
56069;PMS5003;41944;52.078;-0.058;2023-05-31T12:20:13;11;8;
56069;PMS5003;41944;52.078;-0.058;2023-05-31T12:22:39;9;8;
56069;PMS5003;41944;52.078;-0.058;2023-05-31T12:25:07;9;9;
56069;PMS5003;41944;52.078;-0.058;2023-05-31T12:27:34;10;9;
56069;PMS5003;41944;52.078;-0.058;2023-05-31T12:30:01;10;8;
56069;PMS5003;41944;52.078;-0.058;2023-05-31T12:32:30;8;8;
56069;PMS5003;41944;52.078;-0.058;2023-05-31T12:35:05;12;9;
56069;PMS5003;41944;52.078;-0.058;2023-05-31T12:37:34;11;9;
56069;PMS5003;41944;52.078;-0.058;2023-05-31T12:40:09;11;11;
56069;PMS5003;41944;52.078;-0.058;2023-05-31T12:42:37;14;11;
56069;PMS5003;41944;52.078;-0.058;2023-05-31T12:45:04;12;10;
56069;PMS5003;41944;52.078;-0.058;2023-05-31T12:47:32;16;14;
56069;PMS5003;41944;52.078;-0.058;2023-05-31T12:50:01;9;9;
56069;PMS5003;41944;52.078;-0.058;2023-05-31T12:52:29;11;10;
56069;PMS5003;41944;52.078;-0.058;2023-05-31T12:54:56;14;10;
56069;PMS5003;41944;52.078;-0.058;2023-05-31T12:57:23;10;10;
56069;PMS5003;41944;52.078;-0.058;2023-05-31T12:59:56;10;10;
56069;PMS5003;41944;52.078;-0.058;2023-05-31T13:02:24;9;9;
56069;PMS5003;41944;52.078;-0.058;2023-05-31T13:04:51;14;11;
56069;PMS5003;41944;52.078;-0.058;2023-05-31T13:07:18;9;9;
56069;PMS5003;41944;52.078;-0.058;2023-05-31T13:09:45;12;9;
56069;PMS5003;41944;52.078;-0.058;2023-05-31T13:12:12;9;9;
56069;PMS5003;41944;52.078;-0.058;2023-05-31T13:14:39;13;10;
56069;PMS5003;41944;52.078;-0.058;2023-05-31T13:17:06;9;9;
56069;PMS5003;41944;52.078;-0.058;2023-05-31T13:19:33;14;10;
56069;PMS5003;41944;52.078;-0.058;2023-05-31T13:22:00;12;10;
56069;PMS5003;41944;52.078;-0.058;2023-05-31T13:24:28;8;8;
56069;PMS5003;41944;52.078;-0.058;2023-05-31T13:26:55;12;10;
56069;PMS5003;41944;52.078;-0.058;2023-05-31T13:29:23;13;10;
56069;PMS5003;41944;52.078;-0.058;2023-05-31T13:31:50;9;8;
56069;PMS5003;41944;52.078;-0.058;2023-05-31T13:34:18;10;10;
56069;PMS5003;41944;52.078;-0.058;2023-05-31T13:36:45;11;10;
56069;PMS5003;41944;52.078;-0.058;2023-05-31T13:39:12;13;11;
56069;PMS5003;41944;52.078;-0.058;2023-05-31T13:41:41;9;7;
56069;PMS5003;41944;52.078;-0.058;2023-05-31T13:44:08;12;11;
56069;PMS5003;41944;52.078;-0.058;2023-05-31T13:46:36;10;9;
56069;PMS5003;41944;52.078;-0.058;2023-05-31T13:49:03;11;10;
56069;PMS5003;41944;52.078;-0.058;2023-05-31T13:51:30;13;10;
56069;PMS5003;41944;52.078;-0.058;2023-05-31T13:53:57;9;8;
56069;PMS5003;41944;52.078;-0.058;2023-05-31T13:56:24;9;9;
56069;PMS5003;41944;52.078;-0.058;2023-05-31T13:58:51;9;9;
56069;PMS5003;41944;52.078;-0.058;2023-05-31T14:01:18;9;9;
56069;PMS5003;41944;52.078;-0.058;2023-05-31T14:03:45;12;11;
56069;PMS5003;41944;52.078;-0.058;2023-05-31T14:06:12;11;9;
56069;PMS5003;41944;52.078;-0.058;2023-05-31T14:08:39;9;9;
56069;PMS5003;41944;52.078;-0.058;2023-05-31T14:11:06;9;8;
56069;PMS5003;41944;52.078;-0.058;2023-05-31T14:13:33;7;7;
56069;PMS5003;41944;52.078;-0.058;2023-05-31T14:16:00;11;10;
56069;PMS5003;41944;52.078;-0.058;2023-05-31T14:18:27;13;10;
56069;PMS5003;41944;52.078;-0.058;2023-05-31T14:20:54;8;8;
56069;PMS5003;41944;52.078;-0.058;2023-05-31T14:23:21;8;8;
56069;PMS5003;41944;52.078;-0.058;2023-05-31T14:25:47;10;10;
56069;PMS5003;41944;52.078;-0.058;2023-05-31T14:28:15;9;7;
56069;PMS5003;41944;52.078;-0.058;2023-05-31T14:30:42;13;13;
56069;PMS5003;41944;52.078;-0.058;2023-05-31T14:33:09;12;9;
56069;PMS5003;41944;52.078;-0.058;2023-05-31T14:35:36;11;10;
56069;PMS5003;41944;52.078;-0.058;2023-05-31T14:38:03;8;8;
56069;PMS5003;41944;52.078;-0.058;2023-05-31T14:40:30;10;9;
56069;PMS5003;41944;52.078;-0.058;2023-05-31T14:42:57;11;9;
56069;PMS5003;41944;52.078;-0.058;2023-05-31T14:45:24;11;10;
56069;PMS5003;41944;52.078;-0.058;2023-05-31T14:47:51;11;10;
56069;PMS5003;41944;52.078;-0.058;2023-05-31T14:50:18;6;6;
56069;PMS5003;41944;52.078;-0.058;2023-05-31T14:52:45;10;8;
56069;PMS5003;41944;52.078;-0.058;2023-05-31T14:55:12;12;9;
56069;PMS5003;41944;52.078;-0.058;2023-05-31T14:57:39;9;7;
56069;PMS5003;41944;52.078;-0.058;2023-05-31T15:00:07;11;6;
56069;PMS5003;41944;52.078;-0.058;2023-05-31T15:02:35;9;7;
56069;PMS5003;41944;52.078;-0.058;2023-05-31T15:05:01;8;7;
56069;PMS5003;41944;52.078;-0.058;2023-05-31T15:07:28;8;7;
56069;PMS5003;41944;52.078;-0.058;2023-05-31T15:09:55;7;6;
56069;PMS5003;41944;52.078;-0.058;2023-05-31T15:12:22;7;7;
56069;PMS5003;41944;52.078;-0.058;2023-05-31T15:14:49;6;6;
56069;PMS5003;41944;52.078;-0.058;2023-05-31T15:17:16;11;11;
56069;PMS5003;41944;52.078;-0.058;2023-05-31T15:19:43;7;7;
56069;PMS5003;41944;52.078;-0.058;2023-05-31T15:22:10;7;6;
56069;PMS5003;41944;52.078;-0.058;2023-05-31T15:24:37;7;7;
56069;PMS5003;41944;52.078;-0.058;2023-05-31T15:27:04;10;6;
56069;PMS5003;41944;52.078;-0.058;2023-05-31T15:29:32;6;6;
56069;PMS5003;41944;52.078;-0.058;2023-05-31T15:31:59;8;7;
56069;PMS5003;41944;52.078;-0.058;2023-05-31T15:34:29;7;7;
56069;PMS5003;41944;52.078;-0.058;2023-05-31T15:36:56;9;8;
56069;PMS5003;41944;52.078;-0.058;2023-05-31T15:39:23;8;8;
56069;PMS5003;41944;52.078;-0.058;2023-05-31T15:41:50;25;23;
56069;PMS5003;41944;52.078;-0.058;2023-05-31T15:44:17;7;6;
56069;PMS5003;41944;52.078;-0.058;2023-05-31T15:46:44;9;6;
56069;PMS5003;41944;52.078;-0.058;2023-05-31T15:49:11;13;7;
56069;PMS5003;41944;52.078;-0.058;2023-05-31T15:51:38;8;8;
56069;PMS5003;41944;52.078;-0.058;2023-05-31T15:54:05;8;8;
56069;PMS5003;41944;52.078;-0.058;2023-05-31T15:56:32;9;7;
56069;PMS5003;41944;52.078;-0.058;2023-05-31T15:58:59;8;8;
56069;PMS5003;41944;52.078;-0.058;2023-05-31T16:01:26;9;9;
56069;PMS5003;41944;52.078;-0.058;2023-05-31T16:03:53;7;6;
56069;PMS5003;41944;52.078;-0.058;2023-05-31T16:06:20;5;5;
56069;PMS5003;41944;52.078;-0.058;2023-05-31T16:08:47;8;7;
56069;PMS5003;41944;52.078;-0.058;2023-05-31T16:11:14;12;9;
56069;PMS5003;41944;52.078;-0.058;2023-05-31T16:13:42;10;10;
56069;PMS5003;41944;52.078;-0.058;2023-05-31T16:16:08;8;8;
56069;PMS5003;41944;52.078;-0.058;2023-05-31T16:18:35;11;8;
56069;PMS5003;41944;52.078;-0.058;2023-05-31T16:21:03;8;8;
56069;PMS5003;41944;52.078;-0.058;2023-05-31T16:23:30;12;9;
56069;PMS5003;41944;52.078;-0.058;2023-05-31T16:25:57;11;11;
56069;PMS5003;41944;52.078;-0.058;2023-05-31T16:28:24;10;10;
56069;PMS5003;41944;52.078;-0.058;2023-05-31T16:30:51;11;11;
56069;PMS5003;41944;52.078;-0.058;2023-05-31T16:33:18;12;11;